createdAt,value
2019-06-07T00:00:38.049Z,11.50
2019-06-07T00:02:51.977Z,11.40
2019-06-07T00:05:20.729Z,11.40
2019-06-07T00:07:49.572Z,11.20
2019-06-07T00:10:35.234Z,11.00
2019-06-07T00:12:49.083Z,10.90
2019-06-07T00:15:26.922Z,10.90
2019-06-07T00:17:48.415Z,11.00
2019-06-07T00:20:23.270Z,11.30
2019-06-07T00:22:48.331Z,11.40
2019-06-07T00:25:23.768Z,11.50
2019-06-07T00:27:47.985Z,11.50
2019-06-07T00:30:40.007Z,11.40
2019-06-07T00:32:48.952Z,11.30
2019-06-07T00:35:21.044Z,11.30
2019-06-07T00:37:48.389Z,11.20
2019-06-07T00:40:30.913Z,11.00
2019-06-07T00:42:50.579Z,10.90
2019-06-07T00:45:22.402Z,10.80
2019-06-07T00:47:49.958Z,10.80
2019-06-07T00:50:21.024Z,10.80
2019-06-07T00:55:23.424Z,11.00
2019-06-07T00:57:50.872Z,10.90
2019-06-07T01:00:24.933Z,10.80
2019-06-07T01:02:50.883Z,10.80
2019-06-07T01:05:23.440Z,10.70
2019-06-07T01:07:50.161Z,10.60
2019-06-07T01:10:42.808Z,10.60
2019-06-07T01:12:50.071Z,10.60
2019-06-07T01:15:23.512Z,10.60
2019-06-07T01:18:33.072Z,10.50
2019-06-07T01:20:24.838Z,10.50
2019-06-07T01:22:53.886Z,10.50
2019-06-07T01:25:25.947Z,10.50
2019-06-07T01:27:53.233Z,10.40
2019-06-07T01:30:26.509Z,10.40
2019-06-07T01:32:54.403Z,10.30
2019-06-07T01:35:25.622Z,10.20
2019-06-07T01:37:54.537Z,10.20
2019-06-07T01:40:29.806Z,10.10
2019-06-07T01:42:54.052Z,10.20
2019-06-07T01:45:23.772Z,10.20
2019-06-07T01:47:53.108Z,10.20
2019-06-07T01:50:24.873Z,10.10
2019-06-07T01:52:52.440Z,10.10
2019-06-07T01:55:23.661Z,10.00
2019-06-07T01:57:52.534Z,10.00
2019-06-07T02:00:23.683Z,10.00
2019-06-07T02:02:52.259Z,10.00
2019-06-07T02:05:23.189Z,9.90
2019-06-07T02:07:51.642Z,9.80
2019-06-07T02:10:25.753Z,9.80
2019-06-07T02:12:51.645Z,9.80
2019-06-07T02:15:23.012Z,9.80
2019-06-07T02:17:51.310Z,9.70
2019-06-07T02:20:20.975Z,9.60
2019-06-07T02:22:50.781Z,9.70
2019-06-07T02:25:43.629Z,9.60
2019-06-07T02:27:50.164Z,9.50
2019-06-07T02:32:49.540Z,9.50
2019-06-07T02:35:22.501Z,9.50
2019-06-07T02:37:50.189Z,9.40
2019-06-07T02:40:19.568Z,9.40
2019-06-07T02:42:51.346Z,9.40
2019-06-07T02:45:20.217Z,9.40
2019-06-07T02:47:49.038Z,9.50
2019-06-07T02:50:18.404Z,9.50
2019-06-07T02:52:47.229Z,9.50
2019-06-07T02:55:16.224Z,9.60
2019-06-07T02:57:45.047Z,9.70
2019-06-07T03:00:42.379Z,9.70
2019-06-07T03:02:47.180Z,9.80
2019-06-07T03:05:16.031Z,9.70
2019-06-07T03:07:47.007Z,9.80
2019-06-07T03:10:17.166Z,9.90
2019-06-07T03:12:48.698Z,9.90
2019-06-07T03:15:32.734Z,9.80
2019-06-07T03:17:51.928Z,9.70
2019-06-07T03:20:22.701Z,9.70
2019-06-07T03:22:51.756Z,9.60
2019-06-07T03:25:20.789Z,9.60
2019-06-07T03:27:50.615Z,9.50
2019-06-07T03:30:42.825Z,9.50
2019-06-07T03:32:52.155Z,9.40
2019-06-07T03:35:20.820Z,9.50
2019-06-07T03:37:49.543Z,9.50
2019-06-07T03:40:18.287Z,9.50
2019-06-07T03:42:46.947Z,9.50
2019-06-07T03:45:15.725Z,9.60
2019-06-07T03:47:44.422Z,9.60
2019-06-07T03:50:13.737Z,9.70
2019-06-07T03:52:42.528Z,9.90
2019-06-07T03:55:11.832Z,10.10
2019-06-07T03:58:29.081Z,10.40
2019-06-07T04:00:12.308Z,10.60
2019-06-07T04:02:42.253Z,10.70
2019-06-07T04:05:11.485Z,10.90
2019-06-07T04:07:44.096Z,11.00
2019-06-07T04:10:11.100Z,11.00
2019-06-07T04:12:43.767Z,11.10
2019-06-07T04:15:10.520Z,11.40
2019-06-07T04:17:49.156Z,11.50
2019-06-07T04:20:10.391Z,11.70
2019-06-07T04:22:42.422Z,12.10
2019-06-07T04:25:11.564Z,12.40
2019-06-07T04:27:41.231Z,12.40
2019-06-07T04:30:10.902Z,12.50
2019-06-07T04:32:44.730Z,12.50
2019-06-07T04:35:10.755Z,12.50
2019-06-07T04:37:41.549Z,12.50
2019-06-07T04:40:14.885Z,12.40
2019-06-07T04:42:45.588Z,12.50
2019-06-07T04:45:33.080Z,12.60
2019-06-07T04:47:46.492Z,12.60
2019-06-07T04:50:15.780Z,12.60
2019-06-07T04:52:45.689Z,12.40
2019-06-07T04:55:14.733Z,12.40
2019-06-07T04:57:43.595Z,12.50
2019-06-07T05:00:46.591Z,12.60
2019-06-07T05:02:43.756Z,12.80
2019-06-07T05:05:13.096Z,13.00
2019-06-07T05:07:45.978Z,13.20
2019-06-07T05:10:12.497Z,13.20
2019-06-07T05:12:44.128Z,13.30
2019-06-07T05:15:11.878Z,13.70
2019-06-07T05:17:44.756Z,14.00
2019-06-07T05:20:11.487Z,14.30
2019-06-07T05:22:44.809Z,14.50
2019-06-07T05:25:11.207Z,14.70
2019-06-07T05:27:46.297Z,14.60
2019-06-07T05:30:36.432Z,14.60
2019-06-07T05:32:45.797Z,14.80
2019-06-07T05:35:14.549Z,15.10
2019-06-07T05:37:45.871Z,15.00
2019-06-07T05:40:16.662Z,15.00
2019-06-07T05:42:46.668Z,15.10
2019-06-07T05:45:18.623Z,15.10
2019-06-07T05:47:51.125Z,15.40
2019-06-07T05:50:38.587Z,15.40
2019-06-07T05:52:48.307Z,15.70
2019-06-07T05:55:17.334Z,15.90
2019-06-07T05:57:50.910Z,16.00
2019-06-07T06:00:17.029Z,16.10
2019-06-07T06:03:04.330Z,16.00
2019-06-07T06:05:32.661Z,15.90
2019-06-07T06:07:50.666Z,16.10
2019-06-07T06:10:17.930Z,16.40
2019-06-07T06:12:51.759Z,16.70
2019-06-07T06:15:17.809Z,16.70
2019-06-07T06:17:50.019Z,16.90
2019-06-07T06:20:18.470Z,17.10
2019-06-07T06:22:51.081Z,17.50
2019-06-07T06:25:34.402Z,17.50
2019-06-07T06:28:10.209Z,17.80
2019-06-07T06:30:19.898Z,17.70
2019-06-07T06:32:56.741Z,17.90
2019-06-07T06:35:19.421Z,18.30
2019-06-07T06:37:53.192Z,18.00
2019-06-07T06:40:22.394Z,18.20
2019-06-07T06:42:51.139Z,18.00
2019-06-07T06:45:20.880Z,18.00
2019-06-07T06:47:50.602Z,18.60
2019-06-07T06:50:20.930Z,19.00
2019-06-07T06:52:54.210Z,19.30
2019-06-07T06:55:20.434Z,19.50
2019-06-07T06:57:51.410Z,19.60
2019-06-07T07:00:42.825Z,19.70
2019-06-07T07:03:41.367Z,19.90
2019-06-07T07:05:23.590Z,19.50
2019-06-07T07:07:53.003Z,19.70
2019-06-07T07:10:24.774Z,20.20
2019-06-07T07:12:53.968Z,19.80
2019-06-07T07:15:23.028Z,19.10
2019-06-07T07:18:04.368Z,19.30
2019-06-07T07:20:22.295Z,19.30
2019-06-07T07:22:56.311Z,19.20
2019-06-07T07:25:21.583Z,19.00
2019-06-07T07:27:54.914Z,18.70
2019-06-07T07:30:36.827Z,18.70
2019-06-07T07:32:59.016Z,18.90
2019-06-07T07:35:24.581Z,18.60
2019-06-07T07:37:58.824Z,19.00
2019-06-07T07:42:56.674Z,18.80
2019-06-07T07:45:25.096Z,18.80
2019-06-07T07:48:08.326Z,18.80
2019-06-07T07:50:24.379Z,18.90
2019-06-07T07:52:55.991Z,18.80
2019-06-07T07:55:23.772Z,19.10
2019-06-07T07:58:00.909Z,19.20
2019-06-07T08:00:50.200Z,19.30
2019-06-07T08:02:58.616Z,19.90
2019-06-07T08:05:42.012Z,19.80
2019-06-07T08:08:00.372Z,20.00
2019-06-07T08:10:26.720Z,19.80
2019-06-07T08:13:19.532Z,19.50
2019-06-07T08:15:26.109Z,20.20
2019-06-07T08:17:59.775Z,20.30
2019-06-07T08:20:26.038Z,19.80
2019-06-07T08:22:58.842Z,19.80
2019-06-07T08:25:27.099Z,20.10
2019-06-07T08:27:57.211Z,20.30
2019-06-07T08:30:47.856Z,20.40
2019-06-07T08:33:12.051Z,20.30
2019-06-07T08:36:03.895Z,20.40
2019-06-07T08:38:26.698Z,20.30
2019-06-07T08:40:30.206Z,20.40
2019-06-07T08:43:15.472Z,20.20
2019-06-07T08:45:30.320Z,20.50
2019-06-07T08:48:05.405Z,20.60
2019-06-07T08:50:30.147Z,20.40
2019-06-07T08:53:10.607Z,20.70
2019-06-07T08:55:29.504Z,20.90
2019-06-07T08:58:04.245Z,20.70
2019-06-07T09:00:45.269Z,20.60
2019-06-07T09:03:05.207Z,20.30
2019-06-07T09:05:30.320Z,20.50
2019-06-07T09:08:21.040Z,20.80
2019-06-07T09:10:29.635Z,20.50
2019-06-07T09:13:03.153Z,20.30
2019-06-07T09:15:29.133Z,20.40
2019-06-07T09:20:37.000Z,21.70
2019-06-07T09:23:11.591Z,21.60
2019-06-07T09:25:32.214Z,21.40
2019-06-07T09:28:10.158Z,21.30
2019-06-07T09:30:34.311Z,21.70
2019-06-07T09:33:06.621Z,21.40
2019-06-07T09:35:33.652Z,21.10
2019-06-07T09:38:10.866Z,21.00
2019-06-07T09:40:33.417Z,21.30
2019-06-07T09:43:47.484Z,21.00
2019-06-07T09:45:32.838Z,20.40
2019-06-07T09:48:09.357Z,20.80
2019-06-07T09:50:32.192Z,20.80
2019-06-07T09:53:10.625Z,20.70
2019-06-07T09:55:31.467Z,21.00
2019-06-07T09:58:03.638Z,21.50
2019-06-07T10:00:40.706Z,21.80
2019-06-07T10:03:08.819Z,22.40
2019-06-07T10:05:32.866Z,22.10
2019-06-07T10:08:16.065Z,21.50
2019-06-07T10:10:37.839Z,21.50
2019-06-07T10:13:08.136Z,22.10
2019-06-07T10:15:37.712Z,22.20
2019-06-07T10:18:07.066Z,22.40
2019-06-07T10:20:36.031Z,22.50
2019-06-07T10:23:05.708Z,23.00
2019-06-07T10:25:34.679Z,22.70
2019-06-07T10:28:04.190Z,22.30
2019-06-07T10:30:32.951Z,22.30
2019-06-07T10:33:02.262Z,22.50
2019-06-07T10:35:31.245Z,22.90
2019-06-07T10:38:00.362Z,22.50
2019-06-07T10:40:29.265Z,22.00
2019-06-07T10:42:58.027Z,22.10
2019-06-07T10:45:26.790Z,22.20
2019-06-07T10:47:56.404Z,22.50
2019-06-07T10:50:25.163Z,22.50
2019-06-07T10:52:53.966Z,22.20
2019-06-07T10:55:22.751Z,22.10
2019-06-07T10:57:51.569Z,22.60
2019-06-07T11:00:20.930Z,22.90
2019-06-07T11:02:49.730Z,22.80
2019-06-07T11:05:19.479Z,22.50
2019-06-07T11:07:48.276Z,22.50
2019-06-07T11:10:19.958Z,22.40
2019-06-07T11:12:47.896Z,23.10
2019-06-07T11:15:17.323Z,22.90
2019-06-07T11:17:46.222Z,22.70
2019-06-07T11:20:15.968Z,22.70
2019-06-07T11:22:44.706Z,22.70
2019-06-07T11:25:14.711Z,23.10
2019-06-07T11:27:43.854Z,23.90
2019-06-07T11:30:14.572Z,23.60
2019-06-07T11:32:43.486Z,23.40
2019-06-07T11:35:13.978Z,23.30
2019-06-07T11:37:43.617Z,23.30
2019-06-07T11:40:35.706Z,23.40
2019-06-07T11:42:43.676Z,23.70
2019-06-07T11:45:14.884Z,24.30
2019-06-07T11:47:43.346Z,23.90
2019-06-07T11:50:13.734Z,23.60
2019-06-07T11:52:46.089Z,23.90
2019-06-07T11:55:15.623Z,23.90
2019-06-07T11:57:44.236Z,24.40
2019-06-07T12:00:16.476Z,24.40
2019-06-07T12:02:45.709Z,24.30
2019-06-07T12:05:18.385Z,24.00
2019-06-07T12:07:46.576Z,24.20
2019-06-07T12:10:20.518Z,24.60
2019-06-07T12:12:46.342Z,24.50
2019-06-07T12:15:15.367Z,24.00
2019-06-07T12:17:44.200Z,24.00
2019-06-07T12:20:15.280Z,24.50
2019-06-07T12:22:46.959Z,24.60
2019-06-07T12:25:20.679Z,24.30
2019-06-07T12:27:47.765Z,25.00
2019-06-07T12:30:24.313Z,25.00
2019-06-07T12:32:48.246Z,25.20
2019-06-07T12:35:17.941Z,24.50
2019-06-07T12:37:47.199Z,24.40
2019-06-07T12:40:27.688Z,25.30
2019-06-07T12:42:47.251Z,25.50
2019-06-07T12:45:36.673Z,25.30
2019-06-07T12:47:47.728Z,25.40
2019-06-07T12:50:17.472Z,25.40
2019-06-07T12:52:46.416Z,25.70
2019-06-07T12:55:16.065Z,25.30
2019-06-07T12:57:45.388Z,25.40
2019-06-07T13:00:16.015Z,25.50
2019-06-07T13:02:44.881Z,26.20
2019-06-07T13:05:15.258Z,26.00
2019-06-07T13:07:44.122Z,25.70
2019-06-07T13:10:15.573Z,25.70
2019-06-07T13:12:44.513Z,26.10
2019-06-07T13:15:17.680Z,26.20
2019-06-07T13:17:44.987Z,26.00
2019-06-07T13:20:14.490Z,26.20
2019-06-07T13:22:43.608Z,26.70
2019-06-07T13:25:13.221Z,26.60
2019-06-07T13:27:42.120Z,26.50
2019-06-07T13:30:13.102Z,26.90
2019-06-07T13:32:41.913Z,27.00
2019-06-07T13:35:11.222Z,26.90
2019-06-07T13:37:39.945Z,26.60
2019-06-07T13:40:09.329Z,26.50
2019-06-07T13:42:38.792Z,26.50
2019-06-07T13:45:08.239Z,26.60
2019-06-07T13:47:37.042Z,26.90
2019-06-07T13:50:08.206Z,26.70
2019-06-07T13:52:37.605Z,26.80
2019-06-07T13:55:07.462Z,26.80
2019-06-07T13:57:36.549Z,27.50
2019-06-07T14:00:10.663Z,28.10
2019-06-07T14:02:38.657Z,28.00
2019-06-07T14:05:08.418Z,27.80
2019-06-07T14:07:37.182Z,27.80
2019-06-07T14:10:11.371Z,28.20
2019-06-07T14:12:38.829Z,28.30
2019-06-07T14:15:09.096Z,28.20
2019-06-07T14:17:37.854Z,28.30
2019-06-07T14:20:08.948Z,28.70
2019-06-07T14:22:38.315Z,27.90
2019-06-07T14:25:09.162Z,27.40
2019-06-07T14:27:38.247Z,27.40
2019-06-07T14:30:10.009Z,27.40
2019-06-07T14:32:38.796Z,27.20
2019-06-07T14:35:08.067Z,27.10
2019-06-07T14:37:36.947Z,27.20
2019-06-07T14:40:09.409Z,27.40
2019-06-07T14:42:38.263Z,27.50
2019-06-07T14:45:08.560Z,27.70
2019-06-07T14:47:37.316Z,27.50
2019-06-07T14:50:07.847Z,27.00
2019-06-07T14:52:55.784Z,27.00
2019-06-07T14:55:25.140Z,26.80
2019-06-07T14:57:54.152Z,27.20
2019-06-07T15:00:43.561Z,27.10
2019-06-07T15:03:12.368Z,27.00
2019-06-07T15:05:41.326Z,27.10
2019-06-07T15:08:10.304Z,27.30
2019-06-07T15:10:39.469Z,27.20
2019-06-07T15:13:08.510Z,27.20
2019-06-07T15:15:38.940Z,27.40
2019-06-07T15:18:08.418Z,27.60
2019-06-07T15:20:38.420Z,28.00
2019-06-07T15:23:07.603Z,28.10
2019-06-07T15:25:36.397Z,28.10
2019-06-07T15:28:05.244Z,27.80
2019-06-07T15:30:34.095Z,27.80
2019-06-07T15:33:02.913Z,27.80
2019-06-07T15:35:32.173Z,27.70
2019-06-07T15:38:01.242Z,27.60
2019-06-07T15:40:31.008Z,27.30
2019-06-07T15:43:00.152Z,26.90
2019-06-07T15:45:29.355Z,26.60
2019-06-07T15:47:58.383Z,26.40
2019-06-07T15:50:28.882Z,26.30
2019-06-07T15:52:57.678Z,26.40
2019-06-07T15:55:26.440Z,26.40
2019-06-07T15:57:55.247Z,26.30
2019-06-07T16:00:24.765Z,26.10
2019-06-07T16:02:53.570Z,26.00
2019-06-07T16:05:22.540Z,25.90
2019-06-07T16:07:51.346Z,25.80
2019-06-07T16:10:20.752Z,25.80
2019-06-07T16:13:00.140Z,25.60
2019-06-07T16:15:21.458Z,25.50
2019-06-07T16:17:50.316Z,25.40
2019-06-07T16:20:19.961Z,25.30
2019-06-07T16:22:48.769Z,25.20
2019-06-07T16:25:18.208Z,25.10
2019-06-07T16:27:47.028Z,25.00
2019-06-07T16:30:16.474Z,25.00
2019-06-07T16:32:46.326Z,24.90
2019-06-07T16:35:15.792Z,24.80
2019-06-07T16:37:46.943Z,24.80
2019-06-07T16:40:15.832Z,24.80
2019-06-07T16:42:45.194Z,24.80
2019-06-07T16:45:16.298Z,24.80
2019-06-07T16:47:47.582Z,24.60
2019-06-07T16:50:16.655Z,24.30
2019-06-07T16:52:46.616Z,24.10
2019-06-07T16:55:16.125Z,24.00
2019-06-07T16:57:45.263Z,23.90
2019-06-07T17:00:15.391Z,23.70
2019-06-07T17:02:44.957Z,23.50
2019-06-07T17:05:14.880Z,23.30
2019-06-07T17:07:44.812Z,23.00
2019-06-07T17:10:14.730Z,22.50
2019-06-07T17:12:44.829Z,21.60
2019-06-07T17:15:16.134Z,20.60
2019-06-07T17:17:45.270Z,19.60
2019-06-07T17:20:14.188Z,18.70
2019-06-07T17:22:44.057Z,18.40
2019-06-07T17:25:15.581Z,18.30
2019-06-07T17:27:46.174Z,18.40
2019-06-07T17:30:15.588Z,18.50
2019-06-07T17:32:55.161Z,18.50
2019-06-07T17:35:16.977Z,18.50
2019-06-07T17:37:47.583Z,18.50
2019-06-07T17:40:19.312Z,18.50
2019-06-07T17:42:49.079Z,18.40
2019-06-07T17:45:18.469Z,18.40
2019-06-07T17:47:47.777Z,18.30
2019-06-07T17:50:17.188Z,18.10
2019-06-07T17:52:46.096Z,18.00
2019-06-07T17:55:16.637Z,17.90
2019-06-07T17:57:46.553Z,17.70
2019-06-07T18:00:33.539Z,17.50
2019-06-07T18:02:47.077Z,17.40
2019-06-07T18:05:16.574Z,17.20
2019-06-07T18:07:49.688Z,17.10
2019-06-07T18:10:21.415Z,17.00
2019-06-07T18:12:50.274Z,17.00
2019-06-07T18:15:22.018Z,17.00
2019-06-07T18:17:52.782Z,16.90
2019-06-07T18:20:21.803Z,16.90
2019-06-07T18:22:51.275Z,16.80
2019-06-07T18:25:20.232Z,16.80
2019-06-07T18:27:50.555Z,16.80
2019-06-07T18:30:20.180Z,16.80
2019-06-07T18:32:48.946Z,16.70
2019-06-07T18:35:17.764Z,16.70
2019-06-07T18:37:46.979Z,16.60
2019-06-07T18:40:20.351Z,16.60
2019-06-07T18:42:49.198Z,16.50
2019-06-07T18:45:18.159Z,16.50
2019-06-07T18:47:47.832Z,16.50
2019-06-07T18:50:16.955Z,16.40
2019-06-07T18:52:46.708Z,16.50
2019-06-07T18:55:16.706Z,16.50
2019-06-07T18:57:48.044Z,16.50
2019-06-07T19:00:19.322Z,16.50
2019-06-07T19:02:49.657Z,16.50
2019-06-07T19:05:19.284Z,16.50
2019-06-07T19:07:48.909Z,16.50
2019-06-07T19:10:18.989Z,16.50
2019-06-07T19:12:48.959Z,16.50
2019-06-07T19:15:18.663Z,16.50
2019-06-07T19:17:47.822Z,16.50
2019-06-07T19:20:19.022Z,16.50
2019-06-07T19:22:47.865Z,16.50
2019-06-07T19:25:21.586Z,16.40
2019-06-07T19:27:50.794Z,16.40
2019-06-07T19:30:20.762Z,16.40
2019-06-07T19:32:51.206Z,16.30
2019-06-07T19:35:20.634Z,16.30
2019-06-07T19:37:51.743Z,16.20
2019-06-07T19:40:21.781Z,16.10
2019-06-07T19:42:52.063Z,16.10
2019-06-07T19:45:30.827Z,16.10
2019-06-07T19:47:52.387Z,16.10
2019-06-07T19:50:21.794Z,16.10
2019-06-07T19:52:50.688Z,16.10
2019-06-07T19:55:20.891Z,16.10
2019-06-07T19:57:50.261Z,16.10
2019-06-07T20:00:19.658Z,16.00
2019-06-07T20:02:48.488Z,16.00
2019-06-07T20:05:17.490Z,15.90
2019-06-07T20:07:46.322Z,15.90
2019-06-07T20:10:15.879Z,15.90
2019-06-07T20:12:45.599Z,15.90
2019-06-07T20:15:27.737Z,15.80
2019-06-07T20:17:46.622Z,15.80
2019-06-07T20:20:15.818Z,15.80
2019-06-07T20:22:44.828Z,15.80
2019-06-07T20:25:14.093Z,15.80
2019-06-07T20:27:44.677Z,15.80
2019-06-07T20:30:14.859Z,15.80
2019-06-07T20:32:43.655Z,15.80
2019-06-07T20:35:12.720Z,15.80
2019-06-07T20:37:42.123Z,15.80
2019-06-07T20:40:23.382Z,15.80
2019-06-07T20:42:44.344Z,15.70
2019-06-07T20:45:13.539Z,15.70
2019-06-07T20:47:42.419Z,15.60
2019-06-07T20:50:11.833Z,15.70
2019-06-07T20:52:40.680Z,15.70
2019-06-07T20:55:09.903Z,15.70
2019-06-07T20:57:38.924Z,15.80
2019-06-07T21:00:16.761Z,15.80
2019-06-07T21:02:40.488Z,15.80
2019-06-07T21:05:10.600Z,15.80
2019-06-07T21:07:39.412Z,15.70
2019-06-07T21:10:10.607Z,15.70
2019-06-07T21:12:39.878Z,15.70
2019-06-07T21:15:14.096Z,15.60
2019-06-07T21:17:41.093Z,15.60
2019-06-07T21:20:14.270Z,15.60
2019-06-07T21:22:41.609Z,15.60
2019-06-07T21:25:11.699Z,15.50
2019-06-07T21:27:40.630Z,15.40
2019-06-07T21:30:11.735Z,15.30
2019-06-07T21:32:41.007Z,15.20
2019-06-07T21:35:10.412Z,15.10
2019-06-07T21:37:39.359Z,15.00
2019-06-07T21:40:10.143Z,15.00
2019-06-07T21:42:39.241Z,15.00
2019-06-07T21:45:09.802Z,14.90
2019-06-07T21:47:39.329Z,15.00
2019-06-07T21:50:08.985Z,15.20
2019-06-07T21:52:37.871Z,15.30
2019-06-07T21:55:07.350Z,15.30
2019-06-07T21:57:37.053Z,15.30
2019-06-07T22:00:09.182Z,15.30
2019-06-07T22:02:38.363Z,15.40
2019-06-07T22:05:09.597Z,15.40
2019-06-07T22:07:38.701Z,15.40
2019-06-07T22:10:08.209Z,15.40
2019-06-07T22:12:37.118Z,15.30
2019-06-07T22:15:27.354Z,15.20
2019-06-07T22:17:38.648Z,15.10
2019-06-07T22:20:08.658Z,15.10
2019-06-07T22:22:37.653Z,15.00
2019-06-07T22:25:09.253Z,15.00
2019-06-07T22:27:38.236Z,15.00
2019-06-07T22:30:08.809Z,15.00
2019-06-07T22:32:37.607Z,15.00
2019-06-07T22:35:07.264Z,15.00
2019-06-07T22:37:36.138Z,15.00
2019-06-07T22:40:08.335Z,14.90
2019-06-07T22:42:38.002Z,15.00
2019-06-07T22:45:08.091Z,15.00
2019-06-07T22:47:37.431Z,15.10
2019-06-07T22:50:11.015Z,15.20
2019-06-07T22:52:41.071Z,15.30
2019-06-07T22:55:12.039Z,15.30
2019-06-07T22:57:43.128Z,15.40
2019-06-07T23:00:14.348Z,15.40
2019-06-07T23:02:43.088Z,15.50
2019-06-07T23:05:12.753Z,15.60
2019-06-07T23:07:41.728Z,15.60
2019-06-07T23:10:11.331Z,15.60
2019-06-07T23:12:40.226Z,15.60
2019-06-07T23:15:09.431Z,15.70
2019-06-07T23:17:38.602Z,15.80
2019-06-07T23:20:09.585Z,15.70
2019-06-07T23:22:38.581Z,15.70
2019-06-07T23:25:09.936Z,15.70
2019-06-07T23:27:38.887Z,15.60
2019-06-07T23:30:10.586Z,15.60
2019-06-07T23:32:39.562Z,15.50
2019-06-07T23:35:08.608Z,15.50
2019-06-07T23:37:37.509Z,15.40
2019-06-07T23:40:06.800Z,15.40
2019-06-07T23:42:35.633Z,15.50
2019-06-07T23:45:05.009Z,15.50
2019-06-07T23:47:33.736Z,15.40
2019-06-07T23:50:02.590Z,15.40
2019-06-07T23:52:31.357Z,15.40
2019-06-07T23:55:00.084Z,15.30
2019-06-07T23:57:28.835Z,15.20
2019-06-07T23:59:57.620Z,15.20
